Time;durP1;ratioP1;P1;durP2;ratioP2;P2;SDS_P1;SDS_P2;PMS_P1;PMS_P2;Temp;Humidity;BMP_temperature;BMP_pressure;BME280_temperature;BME280_humidity;BME280_pressure;Samples;Min_cycle;Max_cycle;Signal;HPM_P1;HPM_P2
2022/06/12 00:00:10;;;;;;;7.30;4.73;;;16.50;99.90;;;;;;5061061;28;20445;-84
2022/06/12 00:02:36;;;;;;;6.80;4.90;;;16.50;99.90;;;;;;5050965;28;20507;-85
2022/06/12 00:05:01;;;;;;;8.93;5.73;;;16.30;99.90;;;;;;5058851;28;20490;-84
2022/06/12 00:07:27;;;;;;;6.60;5.17;;;;;;;;;;5060008;28;20280;-84
2022/06/12 00:09:53;;;;;;;9.40;5.13;;;;;;;;;;5046151;28;20923;-82
2022/06/12 00:12:19;;;;;;;8.97;5.20;;;16.20;99.90;;;;;;5066139;28;20460;-83
2022/06/12 00:14:45;;;;;;;8.57;7.20;;;16.20;99.90;;;;;;5058017;28;20497;-84
2022/06/12 00:17:10;;;;;;;7.43;5.70;;;16.20;99.90;;;;;;5073578;28;20194;-84
2022/06/12 00:19:37;;;;;;;15.63;8.27;;;;;;;;;;5064547;28;20189;-85
2022/06/12 00:22:03;;;;;;;8.20;6.07;;;16.00;99.90;;;;;;5057843;28;20286;-85
2022/06/12 00:24:29;;;;;;;8.40;5.60;;;;;;;;;;5043451;28;20561;-83
2022/06/12 00:26:56;;;;;;;10.57;5.60;;;16.10;99.90;;;;;;5065448;28;20938;-83
2022/06/12 00:29:25;;;;;;;9.47;5.20;;;16.10;99.90;;;;;;5076536;28;20403;-84
2022/06/12 00:31:57;;;;;;;6.80;5.17;;;16.10;99.90;;;;;;5074646;28;20406;-83
2022/06/12 00:34:29;;;;;;;6.43;4.87;;;15.90;99.90;;;;;;5070935;28;20740;-84
2022/06/12 00:36:55;;;;;;;8.70;5.73;;;15.90;99.90;;;;;;5068268;28;20434;-84
2022/06/12 00:39:22;;;;;;;7.30;5.37;;;15.80;99.90;;;;;;5043563;28;20408;-85
2022/06/12 00:41:50;;;;;;;11.63;6.03;;;15.80;99.90;;;;;;5042322;28;20451;-83
2022/06/12 00:44:20;;;;;;;5.97;5.37;;;15.80;99.90;;;;;;5056616;28;20526;-84
2022/06/12 00:46:47;;;;;;;6.50;5.70;;;15.80;99.90;;;;;;5077473;28;20415;-84
2022/06/12 00:49:34;;;;;;;9.90;6.30;;;15.80;99.90;;;;;;5071870;28;21287;-84
2022/06/12 00:52:29;;;;;;;11.17;5.20;;;15.80;99.90;;;;;;5088700;22;20402;-84
2022/06/12 00:55:00;;;;;;;10.23;5.47;;;15.80;99.90;;;;;;5050740;28;20825;-84
2022/06/12 00:57:28;;;;;;;8.63;6.10;;;15.80;99.90;;;;;;5060193;28;20419;-83
2022/06/12 00:59:58;;;;;;;6.70;5.47;;;15.80;99.90;;;;;;5052664;28;21084;-86
2022/06/12 01:02:32;;;;;;;6.03;5.43;;;15.80;99.90;;;;;;5049707;28;20518;-86
2022/06/12 01:07:46;;;;;;;9.03;5.20;;;15.70;99.90;;;;;;5081778;28;20887;-83
2022/06/12 01:10:15;;;;;;;8.77;5.80;;;15.70;99.90;;;;;;5060882;28;20430;-84
2022/06/12 01:12:48;;;;;;;10.27;5.93;;;15.60;99.90;;;;;;5080181;28;20513;-84
2022/06/12 01:15:39;;;;;;;8.20;6.40;;;15.60;99.90;;;;;;5085597;28;20430;-82
2022/06/12 01:18:09;;;;;;;10.83;7.50;;;15.60;99.90;;;;;;5086507;28;20433;-84
2022/06/12 01:20:43;;;;;;;12.13;7.50;;;15.60;99.90;;;;;;5073330;28;20441;-84
2022/06/12 01:23:22;;;;;;;12.67;8.23;;;15.50;99.90;;;;;;5081522;28;20519;-83
2022/06/12 01:26:10;;;;;;;9.17;7.50;;;15.50;99.90;;;;;;5082017;28;20983;-83
2022/06/12 01:29:03;;;;;;;14.57;6.40;;;15.40;99.90;;;;;;5081539;28;20445;-85
2022/06/12 01:31:52;;;;;;;11.83;6.80;;;15.40;99.90;;;;;;5068176;28;20437;-88
2022/06/12 01:34:23;;;;;;;10.27;5.97;;;15.30;99.90;;;;;;5067283;28;20464;-83
2022/06/12 01:36:55;;;;;;;8.10;6.50;;;15.30;99.90;;;;;;5083722;28;20650;-83
2022/06/12 01:39:30;;;;;;;8.57;6.63;;;15.30;99.90;;;;;;5063465;28;20467;-86
2022/06/12 01:41:59;;;;;;;8.57;6.67;;;15.30;99.90;;;;;;5054970;28;20463;-84
2022/06/12 01:44:46;;;;;;;8.50;7.10;;;15.30;99.90;;;;;;5088387;28;20425;-86
2022/06/12 01:47:23;;;;;;;11.47;6.47;;;15.30;99.90;;;;;;5074369;28;20449;-85
2022/06/12 01:50:20;;;;;;;9.00;5.60;;;15.20;99.90;;;;;;5078952;28;20860;-85
2022/06/12 01:53:02;;;;;;;11.90;6.60;;;15.00;99.90;;;;;;5089665;28;20809;-83
2022/06/12 01:55:40;;;;;;;12.03;7.80;;;14.90;99.90;;;;;;5082634;28;20415;-82
2022/06/12 01:58:26;;;;;;;7.53;6.70;;;14.90;99.90;;;;;;5082432;28;20454;-85
2022/06/12 02:01:05;;;;;;;8.07;5.83;;;14.90;99.90;;;;;;5093063;28;20540;-86
2022/06/12 02:03:40;;;;;;;9.90;6.47;;;14.90;99.90;;;;;;5083905;28;20473;-85
2022/06/12 02:06:15;;;;;;;11.30;6.33;;;14.90;99.90;;;;;;5065115;28;20443;-86
2022/06/12 02:08:48;;;;;;;11.50;6.63;;;14.90;99.90;;;;;;5078813;28;20878;-81
2022/06/12 02:14:25;;;;;;;9.23;6.60;;;14.90;99.90;;;;;;5075513;28;20440;-86
2022/06/12 02:16:56;;;;;;;6.80;5.70;;;14.80;99.90;;;;;;5070375;28;20930;-83
2022/06/12 02:19:27;;;;;;;13.60;7.57;;;14.80;99.90;;;;;;5066057;28;20444;-83
2022/06/12 02:22:01;;;;;;;7.83;6.77;;;14.80;99.90;;;;;;5069075;28;20415;-82
2022/06/12 02:24:27;;;;;;;10.13;6.37;;;;;;;;;;5067779;28;20506;-85
2022/06/12 02:27:03;;;;;;;9.10;6.30;;;14.80;99.90;;;;;;5088348;28;20457;-82
2022/06/12 02:29:41;;;;;;;8.77;5.97;;;14.80;99.90;;;;;;5094647;28;20487;-83
2022/06/12 02:32:19;;;;;;;9.13;6.90;;;14.80;99.90;;;;;;5078975;28;20437;-84
2022/06/12 02:34:52;;;;;;;8.73;6.50;;;14.80;99.90;;;;;;5091554;28;20979;-80
2022/06/12 02:37:24;;;;;;;8.87;7.17;;;14.70;99.90;;;;;;5097546;28;20437;-81
2022/06/12 02:39:54;;;;;;;9.17;6.70;;;14.70;99.90;;;;;;5089949;28;20773;-85
2022/06/12 02:42:26;;;;;;;8.80;6.60;;;14.70;99.90;;;;;;5073394;28;20454;-84
2022/06/12 02:45:08;;;;;;;9.63;6.57;;;14.60;99.90;;;;;;5078294;28;20520;-83
2022/06/12 02:47:36;;;;;;;9.40;7.37;;;14.60;99.90;;;;;;5086865;28;20483;-85
2022/06/12 02:50:03;;;;;;;11.27;7.63;;;14.60;99.90;;;;;;5083604;28;20430;-84
2022/06/12 02:52:57;;;;;;;8.87;6.70;;;14.60;99.90;;;;;;5068432;28;20468;-84
2022/06/12 02:55:46;;;;;;;8.80;7.10;;;14.60;99.90;;;;;;5057251;28;20510;-84
2022/06/12 02:58:29;;;;;;;7.20;6.43;;;14.60;99.90;;;;;;5056356;28;20434;-84
2022/06/12 03:01:15;;;;;;;9.20;6.53;;;14.70;99.90;;;;;;5080179;28;20434;-86
2022/06/12 03:04:00;;;;;;;11.40;6.33;;;14.50;99.90;;;;;;5086288;28;20564;-84
2022/06/12 03:06:27;;;;;;;12.07;7.63;;;14.10;99.90;;;;;;5082988;28;21601;-82
2022/06/12 03:08:56;;;;;;;7.13;5.90;;;14.00;99.90;;;;;;5079111;28;20479;-82
2022/06/12 03:11:36;;;;;;;8.48;6.57;;;13.90;99.90;;;;;;5077105;28;20418;-87
2022/06/12 03:14:08;;;;;;;11.35;6.07;;;13.90;99.90;;;;;;5074544;28;20238;-84
2022/06/12 03:16:36;;;;;;;8.70;6.50;;;;;;;;;;5076768;28;20168;-83
2022/06/12 03:19:09;;;;;;;10.73;6.65;;;13.80;99.90;;;;;;5083445;28;20192;-86
2022/06/12 03:22:17;;;;;;;9.02;6.43;;;13.80;99.90;;;;;;5065489;28;20176;-85
2022/06/12 03:25:21;;;;;;;8.63;5.88;;;13.60;99.90;;;;;;5077995;28;20209;-84
2022/06/12 03:28:16;;;;;;;6.60;5.77;;;13.70;99.90;;;;;;5087308;28;20188;-83
2022/06/12 03:30:51;;;;;;;6.30;5.70;;;13.70;99.90;;;;;;5038504;28;20471;-85
2022/06/12 03:33:39;;;;;;;9.73;5.47;;;13.70;99.90;;;;;;5067054;28;20214;-87
2022/06/12 03:36:16;;;;;;;7.03;5.80;;;13.80;99.90;;;;;;5067255;28;20205;-84
2022/06/12 03:39:01;;;;;;;6.43;5.43;;;13.90;99.90;;;;;;5060531;28;20184;-85
2022/06/12 03:42:03;;;;;;;6.65;6.05;;;13.90;99.90;;;;;;5082551;28;20655;-87
2022/06/12 03:44:46;;;;;;;14.90;8.07;;;14.00;99.90;;;;;;5058201;28;20192;-82
2022/06/12 03:47:29;;;;;;;8.43;7.53;;;14.00;99.90;;;;;;5068870;28;20180;-82
2022/06/12 03:50:35;;;;;;;8.43;7.00;;;14.20;99.90;;;;;;5088987;28;20211;-82
2022/06/12 03:53:16;;;;;;;12.63;8.47;;;14.30;99.90;;;;;;5001508;28;20551;-84
2022/06/12 03:58:55;;;;;;;10.53;7.90;;;14.40;99.90;;;;;;5078240;28;20802;-88
2022/06/12 04:01:22;;;;;;;16.73;7.33;;;14.30;99.90;;;;;;5076048;28;20942;-86
2022/06/12 04:03:49;;;;;;;8.73;6.97;;;14.60;99.90;;;;;;5079084;28;20445;-82
2022/06/12 04:06:22;;;;;;;9.70;7.00;;;14.60;99.90;;;;;;5071378;28;20207;-83
2022/06/12 04:08:51;;;;;;;10.30;6.70;;;14.70;99.90;;;;;;5070806;28;20557;-86
2022/06/12 04:11:19;;;;;;;7.73;6.30;;;14.60;99.90;;;;;;5064982;28;21399;-83
2022/06/12 04:13:46;;;;;;;13.27;6.63;;;;;;;;;;5080825;28;20472;-84
2022/06/12 04:16:21;;;;;;;6.67;5.90;;;15.40;99.90;;;;;;5080006;28;20426;-85
2022/06/12 04:18:47;;;;;;;5.10;4.70;;;17.40;99.90;;;;;;5075554;28;20449;-86
2022/06/12 04:21:27;;;;;;;7.13;5.27;;;22.10;99.90;;;;;;5070802;28;20437;-84
2022/06/12 04:24:03;;;;;;;9.77;4.60;;;24.40;99.90;;;;;;5065381;28;20712;-83
2022/06/12 04:26:43;;;;;;;7.13;4.70;;;26.10;99.90;;;;;;5068977;28;20425;-83
2022/06/12 04:29:12;;;;;;;5.43;4.10;;;26.30;99.90;;;;;;5073708;28;20458;-85
2022/06/12 04:31:44;;;;;;;9.20;5.70;;;29.30;99.90;;;;;;5056501;28;20852;-84
2022/06/12 04:34:15;;;;;;;5.20;4.70;;;30.50;99.90;;;;;;5056916;28;20438;-87
2022/06/12 04:36:44;;;;;;;6.73;5.17;;;31.60;99.90;;;;;;5087386;28;20855;-81
2022/06/12 04:39:12;;;;;;;7.00;5.00;;;32.30;95.10;;;;;;5062138;28;20538;-82
2022/06/12 04:41:38;;;;;;;13.80;5.33;;;;;;;;;;5058535;28;20440;-85
2022/06/12 04:44:04;;;;;;;4.90;4.40;;;33.50;90.90;;;;;;5079407;28;20812;-87
2022/06/12 04:46:31;;;;;;;6.57;5.20;;;34.60;83.40;;;;;;5057457;28;20504;-85
2022/06/12 04:48:59;;;;;;;6.00;5.50;;;34.80;75.50;;;;;;5053334;28;20484;-85
2022/06/12 04:51:25;;;;;;;6.93;5.37;;;;;;;;;;5081488;28;20442;-84
2022/06/12 04:53:51;;;;;;;6.60;5.83;;;;;;;;;;5082960;28;20461;-88
2022/06/12 04:56:20;;;;;;;6.60;5.90;;;36.10;65.50;;;;;;5057228;28;20857;-86
2022/06/12 04:58:46;;;;;;;7.37;6.43;;;;;;;;;;5080619;28;20458;-82
2022/06/12 05:01:12;;;;;;;6.97;6.37;;;;;;;;;;5085674;28;20457;-81
2022/06/12 05:03:38;;;;;;;8.70;7.43;;;;;;;;;;5086488;28;20525;-83
2022/06/12 05:06:05;;;;;;;9.07;8.30;;;38.80;54.70;;;;;;5084247;28;20457;-83
2022/06/12 05:08:31;;;;;;;9.60;8.70;;;;;;;;;;5087438;28;20467;-86
2022/06/12 05:10:57;;;;;;;9.20;8.50;;;;;;;;;;5069364;28;20457;-84
2022/06/12 05:13:23;;;;;;;9.93;9.03;;;;;;;;;;5067398;28;20446;-82
2022/06/12 05:15:49;;;;;;;11.40;9.87;;;;;;;;;;5060381;28;20433;-83
2022/06/12 05:18:16;;;;;;;10.03;9.07;;;40.00;51.40;;;;;;5084311;28;20193;-84
2022/06/12 05:20:43;;;;;;;10.30;9.50;;;41.00;49.00;;;;;;5082596;28;20434;-86
2022/06/12 05:23:09;;;;;;;12.60;11.53;;;;;;;;;;5083035;28;20452;-86
2022/06/12 05:25:35;;;;;;;11.17;10.53;;;;;;;;;;5087694;28;20440;-84
2022/06/12 05:28:03;;;;;;;12.90;12.00;;;43.00;43.50;;;;;;5065518;28;20465;-86
2022/06/12 05:30:30;;;;;;;12.93;12.17;;;43.10;42.20;;;;;;5079911;28;21115;-85
2022/06/12 05:32:58;;;;;;;13.40;12.43;;;43.50;42.40;;;;;;5055945;28;21124;-84
2022/06/12 05:35:24;;;;;;;13.90;12.83;;;;;;;;;;5073511;28;20436;-86
2022/06/12 05:37:51;;;;;;;14.23;13.13;;;45.10;39.70;;;;;;5065417;28;21532;-86
2022/06/12 05:40:22;;;;;;;14.63;13.50;;;45.50;39.00;;;;;;5083849;28;20575;-84
2022/06/12 05:42:48;;;;;;;15.53;14.53;;;;;;;;;;5062951;28;20461;-86
2022/06/12 05:45:18;;;;;;;15.30;13.97;;;44.50;36.60;;;;;;5065683;28;20421;-83
2022/06/12 05:47:50;;;;;;;16.87;15.77;;;41.60;38.80;;;;;;5057911;28;20556;-84
2022/06/12 05:50:18;;;;;;;19.43;18.27;;;39.90;41.70;;;;;;5057246;28;20419;-84
2022/06/12 05:52:44;;;;;;;19.47;18.10;;;;;;;;;;5051680;28;20462;-86
2022/06/12 05:55:11;;;;;;;18.20;16.47;;;37.10;45.50;;;;;;5062801;28;20453;-87
2022/06/12 05:57:37;;;;;;;14.50;13.63;;;;;;;;;;5066743;28;20434;-86
2022/06/12 06:00:04;;;;;;;14.07;12.77;;;39.60;45.50;;;;;;5079965;28;20439;-85
2022/06/12 06:02:30;;;;;;;14.03;13.03;;;;;;;;;;5078230;28;20453;-82
2022/06/12 06:04:56;;;;;;;15.10;13.87;;;;;;;;;;5064803;28;20434;-83
2022/06/12 06:07:22;;;;;;;14.20;13.10;;;;;;;;;;5055776;28;20210;-85
2022/06/12 06:09:48;;;;;;;15.70;14.60;;;;;;;;;;5070042;28;20583;-83
2022/06/12 06:12:14;;;;;;;13.83;12.67;;;;;;;;;;5085707;28;20871;-87
2022/06/12 06:14:40;;;;;;;8.33;7.63;;;;;;;;;;5082405;28;20421;-85
2022/06/12 06:17:06;;;;;;;9.07;8.43;;;;;;;;;;5078839;28;20425;-85
2022/06/12 06:19:32;;;;;;;10.10;9.40;;;;;;;;;;5054470;28;20426;-85
2022/06/12 06:21:58;;;;;;;11.67;7.47;;;;;;;;;;5064993;28;20805;-84
2022/06/12 06:24:24;;;;;;;9.53;8.90;;;;;;;;;;5052235;28;20424;-83
2022/06/12 06:26:50;;;;;;;10.70;9.70;;;;;;;;;;5056193;28;20796;-85
2022/06/12 06:29:16;;;;;;;10.00;9.20;;;;;;;;;;5067617;28;20909;-86
2022/06/12 06:31:42;;;;;;;10.53;9.77;;;;;;;;;;5080559;28;20176;-88
2022/06/12 06:34:07;;;;;;;11.40;10.50;;;47.30;52.00;;;;;;5078627;28;20187;-83
2022/06/12 06:36:33;;;;;;;10.03;9.43;;;;;;;;;;5057371;28;20183;-82
2022/06/12 06:39:00;;;;;;;9.17;8.40;;;;;;;;;;5073609;28;20179;-84
2022/06/12 06:41:26;;;;;;;9.30;8.70;;;;;;;;;;5070983;28;21190;-85
2022/06/12 06:46:38;;;;;;;9.17;8.57;;;45.00;33.50;;;;;;5083033;28;21008;-83
2022/06/12 06:49:04;;;;;;;11.83;11.03;;;;;;;;;;5055270;28;20466;-83
2022/06/12 06:51:31;;;;;;;11.07;10.27;;;;;;;;;;5066258;28;20429;-85
2022/06/12 06:53:57;;;;;;;14.30;13.40;;;;;;;;;;5054740;28;20469;-85
2022/06/12 06:56:24;;;;;;;12.50;11.77;;;;;;;;;;5101573;22;20536;-85
2022/06/12 06:58:49;;;;;;;14.00;12.90;;;;;;;;;;5057089;28;21051;-87
2022/06/12 07:01:15;;;;;;;14.83;14.00;;;;;;;;;;5063809;28;20430;-86
2022/06/12 07:03:42;;;;;;;14.37;13.40;;;;;;;;;;5060264;28;20434;-86
2022/06/12 07:06:13;;;;;;;12.70;11.73;;;46.20;32.50;;;;;;5060839;28;20445;-85
2022/06/12 07:08:39;;;;;;;11.67;10.77;;;;;;;;;;5061698;28;20465;-86
2022/06/12 07:11:05;;;;;;;12.10;11.40;;;;;;;;;;5059398;28;20532;-87
2022/06/12 07:13:31;;;;;;;14.00;13.00;;;;;;;;;;5045154;28;20779;-85
2022/06/12 07:15:57;;;;;;;14.23;12.97;;;;;;;;;;5064095;28;20433;-87
2022/06/12 07:18:23;;;;;;;13.33;12.70;;;;;;;;;;5062657;28;20703;-86
2022/06/12 07:20:56;;;;;;;13.70;12.90;;;46.60;31.30;;;;;;5062016;28;20185;-88
2022/06/12 07:23:24;;;;;;;14.70;13.90;;;46.50;30.90;;;;;;5046774;28;20865;-84
2022/06/12 07:25:54;;;;;;;13.83;12.93;;;45.20;30.10;;;;;;5060971;28;20435;-87
2022/06/12 07:28:20;;;;;;;13.67;12.70;;;;;;;;;;5059478;28;21025;-85
2022/06/12 07:30:46;;;;;;;12.50;11.70;;;;;;;;;;5063007;28;20768;-87
2022/06/12 07:33:12;;;;;;;16.20;14.60;;;;;;;;;;5065457;28;20423;-86
2022/06/12 07:35:40;;;;;;;16.60;15.60;;;39.60;37.10;;;;;;5063330;28;20434;-86
2022/06/12 07:38:06;;;;;;;20.87;19.50;;;39.70;37.80;;;;;;5061196;28;20329;-86
2022/06/12 07:40:38;;;;;;;16.23;15.33;;;39.50;37.70;;;;;;5066778;28;20450;-83
2022/06/12 07:43:04;;;;;;;6.90;6.40;;;;;;;;;;5068094;28;20788;-87
2022/06/12 07:45:30;;;;;;;17.13;15.83;;;;;;;;;;5061421;28;20451;-86
2022/06/12 07:47:58;;;;;;;15.57;14.63;;;42.10;36.60;;;;;;5065694;28;20466;-86
2022/06/12 07:50:24;;;;;;;17.80;16.27;;;;;;;;;;5065102;28;20539;-86
2022/06/12 07:52:50;;;;;;;18.87;17.77;;;;;;;;;;5061156;28;20462;-85
2022/06/12 07:55:18;;;;;;;18.90;17.80;;;46.90;31.40;;;;;;5061511;28;20216;-85
2022/06/12 07:57:45;;;;;;;19.27;18.20;;;45.80;32.40;;;;;;5058596;28;20554;-85
2022/06/12 08:00:13;;;;;;;19.50;18.40;;;46.40;31.60;;;;;;5046975;28;20513;-85
2022/06/12 08:02:39;;;;;;;20.30;18.90;;;;;;;;;;5043944;28;20461;-87
2022/06/12 08:05:05;;;;;;;21.00;19.80;;;;;;;;;;5061486;28;20430;-85
2022/06/12 08:07:31;;;;;;;21.77;20.47;;;;;;;;;;5060244;28;20687;-86
2022/06/12 08:09:57;;;;;;;22.53;21.23;;;;;;;;;;5061953;28;20430;-86
2022/06/12 08:12:23;;;;;;;24.20;23.00;;;;;;;;;;5070071;28;20427;-84
2022/06/12 08:14:49;;;;;;;23.27;22.07;;;;;;;;;;5068225;28;20196;-84
2022/06/12 08:17:15;;;;;;;23.37;22.17;;;;;;;;;;5061717;28;20212;-87
2022/06/12 08:22:26;;;;;;;19.93;18.73;;;;;;;;;;5067144;28;20196;-87
2022/06/12 08:24:52;;;;;;;11.83;10.93;;;;;;;;;;5062205;28;20443;-85
2022/06/12 08:27:18;;;;;;;16.57;15.60;;;;;;;;;;5063029;28;20279;-86
2022/06/12 08:29:44;;;;;;;18.93;17.93;;;;;;;;;;5059350;28;20509;-86
2022/06/12 08:32:19;;;;;;;17.20;16.23;;;41.20;44.90;;;;;;5053532;28;20432;-85
2022/06/12 08:34:51;;;;;;;25.30;23.90;;;40.50;35.00;;;;;;5062889;28;21222;-87
2022/06/12 08:37:22;;;;;;;23.83;22.73;;;40.80;35.20;;;;;;5064499;28;20522;-86
2022/06/12 08:39:49;;;;;;;18.73;17.67;;;42.30;34.10;;;;;;5060590;28;20419;-86
2022/06/12 08:42:27;;;;;;;12.97;12.33;;;42.30;31.60;;;;;;5060516;28;21078;-86
2022/06/12 08:44:53;;;;;;;16.50;15.80;;;;;;;;;;5053205;28;20489;-87
2022/06/12 08:47:50;;;;;;;18.80;18.00;;;42.30;31.60;;;;;;5057148;28;20480;-84
2022/06/12 08:50:27;;;;;;;20.80;19.60;;;42.30;32.40;;;;;;5062859;28;20210;-86
2022/06/12 08:53:11;;;;;;;11.10;10.50;;;43.50;32.90;;;;;;5045719;28;20517;-86
2022/06/12 08:55:46;;;;;;;16.30;15.27;;;43.40;31.20;;;;;;5061281;28;21119;-87
2022/06/12 08:58:25;;;;;;;16.07;15.17;;;41.90;46.60;;;;;;5059514;28;20526;-86
2022/06/12 09:00:54;;;;;;;13.83;12.73;;;;;;;;;;5059749;28;21084;-87
2022/06/12 09:03:23;;;;;;;20.20;19.30;;;39.40;34.70;;;;;;5056246;28;20431;-87
2022/06/12 09:06:00;;;;;;;19.63;18.53;;;38.80;50.70;;;;;;5046117;28;20431;-87
2022/06/12 09:08:30;;;;;;;16.90;16.00;;;39.70;35.30;;;;;;5061168;28;20473;-85
2022/06/12 09:11:10;;;;;;;15.47;14.77;;;40.40;34.40;;;;;;5042852;28;20438;-86
2022/06/12 09:13:55;;;;;;;17.93;16.90;;;41.00;33.80;;;;;;5059221;28;20463;-85
2022/06/12 09:16:36;;;;;;;19.87;18.97;;;41.00;45.30;;;;;;5060448;28;20436;-84
2022/06/12 09:19:18;;;;;;;20.77;19.77;;;41.70;41.30;;;;;;5066008;28;20430;-86
2022/06/12 09:22:17;;;;;;;16.97;16.17;;;42.10;34.00;;;;;;5048318;28;20512;-85
2022/06/12 09:24:57;;;;;;;23.70;22.60;;;42.50;32.40;;;;;;5064469;28;20438;-85
2022/06/12 09:27:44;;;;;;;17.70;16.80;;;42.70;30.80;;;;;;5062022;28;20448;-85
2022/06/12 09:30:28;;;;;;;11.77;11.07;;;42.40;32.20;;;;;;5058728;28;20483;-86
2022/06/12 09:33:02;;;;;;;19.33;18.33;;;42.90;30.30;;;;;;5057401;28;20426;-86
2022/06/12 09:35:51;;;;;;;13.93;13.23;;;42.20;36.40;;;;;;5054223;28;20515;-85
2022/06/12 09:38:19;;;;;;;23.23;22.07;;;;;;;;;;5053256;28;20430;-86
2022/06/12 09:41:04;;;;;;;13.57;12.97;;;42.30;30.40;;;;;;5067849;28;20427;-84
2022/06/12 09:43:47;;;;;;;11.20;10.17;;;41.10;33.00;;;;;;5064118;28;20460;-85
2022/06/12 09:46:34;;;;;;;7.47;6.97;;;41.60;32.30;;;;;;5061356;28;20450;-85
2022/06/12 09:49:21;;;;;;;15.50;14.47;;;40.30;49.60;;;;;;5041000;28;20466;-85
2022/06/12 09:51:55;;;;;;;31.77;30.37;;;38.70;35.20;;;;;;5062301;28;20406;-83
2022/06/12 09:54:37;;;;;;;17.13;16.20;;;38.70;35.10;;;;;;5064396;28;20793;-88
2022/06/12 09:57:18;;;;;;;18.83;17.30;;;38.60;35.70;;;;;;5046613;28;20472;-85
2022/06/12 09:59:48;;;;;;;16.47;15.57;;;39.10;35.80;;;;;;5057344;28;20506;-86
2022/06/12 10:02:22;;;;;;;18.80;17.50;;;39.70;34.10;;;;;;5038891;28;20451;-86
2022/06/12 10:04:56;;;;;;;16.47;15.30;;;38.40;36.50;;;;;;5058418;28;20446;-86
2022/06/12 10:07:38;;;;;;;15.10;14.30;;;37.90;36.10;;;;;;5057303;28;20462;-87
2022/06/12 10:10:09;;;;;;;15.00;14.20;;;36.30;38.00;;;;;;5045512;28;20449;-85
2022/06/12 10:12:42;;;;;;;14.80;14.00;;;36.40;37.90;;;;;;5052673;28;20439;-85
2022/06/12 10:15:17;;;;;;;15.27;14.37;;;36.10;38.60;;;;;;5059690;28;20788;-86
2022/06/12 10:17:56;;;;;;;14.50;13.70;;;37.20;38.50;;;;;;5047065;28;20549;-86
2022/06/12 10:20:29;;;;;;;15.33;14.53;;;36.00;37.50;;;;;;5052286;28;20525;-86
2022/06/12 10:22:56;;;;;;;14.87;13.83;;;36.70;38.80;;;;;;5052956;28;20418;-85
2022/06/12 10:25:27;;;;;;;13.30;12.60;;;38.10;47.30;;;;;;5062072;28;20503;-87
2022/06/12 10:27:53;;;;;;;14.70;13.80;;;;;;;;;;5052892;28;20482;-86
2022/06/12 10:30:42;;;;;;;13.93;13.23;;;38.50;37.30;;;;;;5051244;28;20431;-85
2022/06/12 10:33:31;;;;;;;15.07;14.23;;;38.90;35.70;;;;;;5055882;28;20176;-86
2022/06/12 10:36:02;;;;;;;13.70;12.90;;;;;;;;;;5055719;28;20908;-85
2022/06/12 10:38:31;;;;;;;14.47;13.67;;;36.50;39.10;;;;;;5040939;28;20428;-85
2022/06/12 10:41:01;;;;;;;15.30;14.20;;;35.50;39.10;;;;;;5044991;28;20437;-86
2022/06/12 10:43:38;;;;;;;14.10;13.40;;;34.70;41.90;;;;;;5062955;28;20465;-85
2022/06/12 10:46:18;;;;;;;13.13;12.53;;;33.90;41.50;;;;;;5055126;28;20425;-86
2022/06/12 10:49:03;;;;;;;12.90;12.13;;;33.30;42.70;;;;;;5047224;28;20495;-85
2022/06/12 10:51:36;;;;;;;12.30;11.70;;;32.90;44.00;;;;;;5057751;28;20451;-87
2022/06/12 10:54:20;;;;;;;11.23;10.73;;;32.00;47.10;;;;;;5064214;28;20412;-85
2022/06/12 10:57:01;;;;;;;9.73;9.10;;;31.20;48.90;;;;;;5067290;28;20753;-84
2022/06/12 10:59:31;;;;;;;9.63;9.03;;;31.20;49.50;;;;;;5067041;28;20427;-87
2022/06/12 11:01:57;;;;;;;8.23;7.73;;;;;;;;;;5057653;28;20500;-85
2022/06/12 11:04:47;;;;;;;7.07;6.57;;;30.50;51.30;;;;;;5063077;28;20870;-86
2022/06/12 11:07:22;;;;;;;7.40;6.63;;;30.70;52.70;;;;;;5061477;28;20431;-85
2022/06/12 11:10:15;;;;;;;6.87;6.03;;;30.80;51.30;;;;;;5063566;28;20435;-83
2022/06/12 11:13:18;;;;;;;6.50;6.00;;;30.80;51.40;;;;;;5077605;28;20431;-86
2022/06/12 11:16:04;;;;;;;6.47;6.00;;;30.20;54.80;;;;;;5066371;28;20478;-85
2022/06/12 11:18:53;;;;;;;6.03;5.43;;;29.70;53.10;;;;;;5066279;28;20462;-86
2022/06/12 11:21:44;;;;;;;6.60;6.20;;;29.60;55.10;;;;;;5054792;28;20999;-86
2022/06/12 11:24:18;;;;;;;5.80;5.50;;;29.40;52.70;;;;;;5049584;28;20439;-85
2022/06/12 11:26:53;;;;;;;5.63;5.23;;;28.90;52.50;;;;;;5068307;28;20438;-83
2022/06/12 11:29:37;;;;;;;7.57;5.00;;;28.90;52.90;;;;;;5062938;28;20461;-83
2022/06/12 11:32:27;;;;;;;5.23;4.80;;;28.80;54.70;;;;;;5068589;28;21275;-84
2022/06/12 11:35:17;;;;;;;6.47;4.60;;;28.70;55.40;;;;;;5065187;28;20471;-85
2022/06/12 11:38:22;;;;;;;5.90;4.00;;;28.30;56.20;;;;;;5062306;28;20455;-84
2022/06/12 11:41:16;;;;;;;4.73;4.30;;;28.50;59.90;;;;;;5003036;28;20428;-84
2022/06/12 11:43:49;;;;;;;5.10;4.57;;;29.80;55.40;;;;;;5067595;28;20510;-85
2022/06/12 11:46:21;;;;;;;4.53;4.23;;;30.10;54.20;;;;;;5064429;28;20450;-84
2022/06/12 11:49:08;;;;;;;5.50;4.70;;;30.30;52.90;;;;;;5055937;28;20874;-85
2022/06/12 11:51:49;;;;;;;5.57;4.83;;;30.20;53.70;;;;;;5056135;28;20416;-86
2022/06/12 11:54:25;;;;;;;5.33;4.60;;;29.50;55.80;;;;;;5057819;28;20419;-86
2022/06/12 11:57:19;;;;;;;9.93;4.77;;;29.20;52.80;;;;;;5046378;28;20458;-86
2022/06/12 12:00:14;;;;;;;5.50;4.90;;;29.50;52.70;;;;;;5059758;28;20418;-86
2022/06/12 12:02:54;;;;;;;5.47;4.90;;;28.60;54.60;;;;;;5067169;28;20430;-86
2022/06/12 12:05:36;;;;;;;6.10;4.90;;;28.90;55.50;;;;;;5067182;28;20437;-85
2022/06/12 12:08:31;;;;;;;7.17;4.47;;;29.10;55.60;;;;;;5057584;28;20472;-83
2022/06/12 12:11:04;;;;;;;4.57;4.17;;;29.60;56.60;;;;;;5059104;28;20462;-83
2022/06/12 12:13:33;;;;;;;4.93;4.53;;;29.50;56.40;;;;;;5063434;28;20439;-85
2022/06/12 12:16:07;;;;;;;4.30;3.90;;;29.10;55.10;;;;;;5067359;28;20439;-85
2022/06/12 12:18:43;;;;;;;4.87;4.47;;;29.10;55.30;;;;;;5065215;28;20923;-85
2022/06/12 12:21:28;;;;;;;5.30;4.67;;;29.10;56.20;;;;;;5058940;28;21217;-86
2022/06/12 12:23:56;;;;;;;4.03;3.67;;;29.00;55.60;;;;;;5063163;28;20892;-84
2022/06/12 12:26:31;;;;;;;4.77;4.37;;;28.80;55.10;;;;;;5062907;28;20419;-85
2022/06/12 12:29:00;;;;;;;4.90;3.80;;;29.10;55.90;;;;;;5062216;28;20463;-84
2022/06/12 12:31:27;;;;;;;4.67;4.27;;;28.80;55.40;;;;;;5073984;28;20437;-82
2022/06/12 12:33:55;;;;;;;5.60;4.00;;;29.10;53.70;;;;;;5079971;28;20453;-84
2022/06/12 12:42:27;;;;;;;5.00;4.60;;;29.10;56.30;;;;;;5070902;28;20416;-83
2022/06/12 12:44:54;;;;;;;4.40;4.10;;;29.10;53.90;;;;;;5062455;28;20521;-84
2022/06/12 12:47:26;;;;;;;5.27;4.00;;;29.20;53.60;;;;;;5072208;28;20502;-83
2022/06/12 12:50:08;;;;;;;4.97;4.57;;;29.20;55.50;;;;;;5053282;28;20436;-84
2022/06/12 12:52:43;;;;;;;3.93;3.63;;;29.10;56.30;;;;;;5051520;28;20428;-83
2022/06/12 12:55:23;;;;;;;4.37;3.97;;;29.20;56.30;;;;;;5058372;28;20439;-85
2022/06/12 12:57:49;;;;;;;4.40;4.10;;;28.90;54.40;;;;;;5057883;28;20469;-85
2022/06/12 13:00:17;;;;;;;4.10;3.80;;;28.40;56.50;;;;;;5060298;22;20418;-83
2022/06/12 13:03:00;;;;;;;4.37;4.07;;;27.90;56.50;;;;;;5071250;28;20412;-82
2022/06/12 13:05:54;;;;;;;4.40;4.00;;;28.00;57.60;;;;;;5059540;28;20924;-83
2022/06/12 13:08:41;;;;;;;4.93;4.30;;;28.20;56.60;;;;;;5058041;28;20952;-84
2022/06/12 13:11:30;;;;;;;4.07;3.70;;;28.30;56.50;;;;;;5059018;28;20390;-84
2022/06/12 13:14:07;;;;;;;4.60;4.00;;;28.20;57.80;;;;;;4987778;28;20421;-83
2022/06/12 13:16:51;;;;;;;4.97;4.30;;;28.80;56.80;;;;;;5049265;28;20474;-83
2022/06/12 13:19:29;;;;;;;4.87;4.50;;;28.90;57.20;;;;;;5045794;28;20438;-84
2022/06/12 13:22:03;;;;;;;4.97;4.53;;;29.60;58.70;;;;;;5027914;28;20474;-82
2022/06/12 13:24:34;;;;;;;4.50;4.10;;;29.10;55.90;;;;;;5042810;28;20473;-83
2022/06/12 13:27:19;;;;;;;7.47;4.20;;;28.60;59.90;;;;;;5027567;28;20473;-82
2022/06/12 13:29:46;;;;;;;6.43;4.40;;;28.60;55.60;;;;;;5045295;28;20416;-82
2022/06/12 13:32:44;;;;;;;5.03;4.30;;;28.70;57.70;;;;;;5047851;28;20848;-83
2022/06/12 13:35:21;;;;;;;4.70;4.10;;;28.70;58.00;;;;;;4990880;28;20439;-81
2022/06/12 13:37:50;;;;;;;4.60;3.23;;;28.20;58.10;;;;;;5028605;28;20568;-80
2022/06/12 13:40:31;;;;;;;3.63;3.33;;;28.50;57.80;;;;;;5044258;28;20449;-83
2022/06/12 13:43:11;;;;;;;5.90;4.67;;;28.60;55.60;;;;;;5043718;28;20498;-82
2022/06/12 13:45:49;;;;;;;7.33;4.30;;;28.80;58.00;;;;;;5042923;28;20426;-81
2022/06/12 13:48:27;;;;;;;4.37;3.97;;;28.30;57.10;;;;;;5045767;28;20469;-79
2022/06/12 13:51:09;;;;;;;3.30;3.10;;;28.30;58.90;;;;;;5045573;28;20452;-80
2022/06/12 13:53:42;;;;;;;4.67;4.20;;;28.00;59.20;;;;;;5028174;28;20440;-82
2022/06/12 13:56:13;;;;;;;5.60;4.67;;;28.20;58.80;;;;;;5045255;28;20436;-82
2022/06/12 13:58:41;;;;;;;7.43;4.53;;;28.40;58.00;;;;;;5042670;28;20443;-82